Acazulco, Mexico

7:14 PM CST on December 07, 2016 (GMT -0600)
Paseo de Las Lomas | | Change Station

Elev 8658 ft 19.37 °N, 99.27 °W | Updated 5 minutes ago

Partly Cloudy
Partly Cloudy
65.3 °F
Feels Like 65.3 °F
N
1.2
Wind Variable Wind from NE
Gusts 3.7 mph

Today
High -- | Low -- °F
--% Chance of Precip.
Yesterday
High -- | Low -- °F
Precip. -- in
Pressure 30.30 in
Visibility 12.0 miles
Clouds Few 2000 ft
Dew Point 45 °F
Humidity 47%
Rainfall 0.00 in
Snow Depth Not available.
6:59 AM 5:59 PM
First Quarter, 58% visible
METAR MMMX 080048Z 13010G21KT 12SM FEW020 19/08 A3030 NOSIG RMK 8/400
Pressure 30.30 in
Visibility 12.0 miles
Clouds Few 2000 ft
Dew Point 45 °F
Humidity 47%
Rainfall 0.00 in
Snow Depth Not available.
6:59 AM 5:59 PM
First Quarter, 58% visible
METAR MMMX 080048Z 13010G21KT 12SM FEW020 19/08 A3030 NOSIG RMK 8/400

10-Day Weather Forecast

No radar image for this location.
×

Almanac

Astronomy

Dec. 07, 2016 Rise Set
Actual Time
Civil Twilight
Nautical Twilight
Astronomical Twilight
Moon
Length of Visible Light
Length of Day
Tomorrow will be .
, % of the Moon is Illuminated

Today's Extremes

Country Highs Country Lows

Community

WunderPhotos

Upload Photos

1,956,247 photos uploaded!

WunderBlog® & News

Nearby

Air Quality

  Air Quality AQ Index Pollutant
Not available.

Snow Depth

Station Depth Elevation

Earthquake Activity

City Distance Mag. Time & Date
Minimum magnitude displayed is 2.5.

Coastal Water Temperatures

Place Temperature

Stations

Nearby Weather Stations

Station Location Temp. Windchill Dew Point Humidity Wind Precip. Elev Updated Type